createdAt,value
2019-01-26T00:02:49.469Z,7.87
2019-01-26T00:07:53.485Z,7.69
2019-01-26T00:12:59.488Z,7.53
2019-01-26T00:18:06.922Z,7.42
2019-01-26T00:23:14.432Z,7.31
2019-01-26T00:28:18.329Z,7.27
2019-01-26T00:33:23.717Z,7.25
2019-01-26T00:38:30.855Z,7.11
2019-01-26T00:43:36.530Z,7.13
2019-01-26T00:48:40.975Z,7.15
2019-01-26T00:53:45.724Z,7.04
2019-01-26T00:58:49.761Z,7.14
2019-01-26T01:03:54.216Z,7.06
2019-01-26T01:08:58.888Z,7.15
2019-01-26T01:14:02.900Z,7.18
2019-01-26T01:19:07.132Z,7.27
2019-01-26T01:24:16.132Z,7.48
2019-01-26T01:29:22.717Z,7.62
2019-01-26T01:34:27.403Z,7.80
2019-01-26T01:39:32.088Z,7.79
2019-01-26T01:44:38.918Z,7.84
2019-01-26T01:49:43.055Z,7.98
2019-01-26T01:54:47.253Z,7.99
2019-01-26T01:59:51.694Z,8.03
2019-01-26T02:04:56.344Z,8.04
2019-01-26T02:10:02.382Z,7.99
2019-01-26T02:15:08.804Z,8.06
2019-01-26T02:20:16.251Z,8.02
2019-01-26T02:25:20.942Z,7.99
2019-01-26T02:30:26.629Z,7.98
2019-01-26T02:35:32.878Z,7.99
2019-01-26T02:40:37.050Z,7.96
2019-01-26T02:45:41.288Z,7.96
2019-01-26T02:50:46.225Z,7.93
2019-01-26T02:55:52.783Z,7.88
2019-01-26T03:00:59.543Z,7.81
2019-01-26T03:06:08.857Z,7.89
2019-01-26T03:11:15.974Z,7.87
2019-01-26T03:16:22.315Z,7.91
2019-01-26T03:21:26.583Z,7.71
2019-01-26T03:26:30.655Z,7.79
2019-01-26T03:31:36.439Z,7.75
2019-01-26T03:36:41.140Z,7.76
2019-01-26T03:41:47.461Z,7.69
2019-01-26T03:46:52.323Z,7.73
2019-01-26T03:51:56.377Z,7.73
2019-01-26T03:57:00.877Z,7.66
2019-01-26T04:02:04.867Z,7.66
2019-01-26T04:07:11.630Z,7.59
2019-01-26T04:12:19.068Z,7.62
2019-01-26T04:17:25.770Z,7.68
2019-01-26T04:22:29.892Z,7.75
2019-01-26T04:27:34.296Z,7.93
2019-01-26T04:32:39.008Z,7.94
2019-01-26T04:37:43.959Z,7.95
2019-01-26T04:42:50.448Z,8.05
2019-01-26T04:47:55.685Z,8.05
2019-01-26T04:53:00.303Z,8.01
2019-01-26T04:58:04.904Z,7.83
2019-01-26T05:03:20.437Z,7.82
2019-01-26T05:08:27.282Z,7.74
2019-01-26T05:13:32.078Z,7.64
2019-01-26T05:18:39.121Z,7.55
2019-01-26T05:23:43.159Z,7.61
2019-01-26T05:28:48.258Z,7.69
2019-01-26T05:33:54.894Z,7.73
2019-01-26T05:39:01.597Z,7.73
2019-01-26T05:44:07.889Z,7.61
2019-01-26T05:49:12.872Z,7.47
2019-01-26T05:54:18.584Z,7.43
2019-01-26T05:59:24.311Z,7.53
2019-01-26T06:04:29.869Z,7.35
2019-01-26T06:09:40.018Z,7.44
2019-01-26T06:14:48.167Z,7.50
2019-01-26T06:19:56.771Z,7.60
2019-01-26T06:25:05.482Z,7.63
2019-01-26T06:30:14.829Z,7.61
2019-01-26T06:35:19.597Z,7.53
2019-01-26T06:40:24.690Z,7.51
2019-01-26T06:45:31.823Z,7.49
2019-01-26T06:50:38.442Z,7.70
2019-01-26T06:55:43.116Z,7.95
2019-01-26T07:00:48.317Z,7.78
2019-01-26T07:06:03.369Z,7.52
2019-01-26T07:11:10.980Z,7.52
2019-01-26T07:16:22.424Z,7.57
2019-01-26T07:21:29.562Z,7.57
2019-01-26T07:26:35.023Z,7.68
2019-01-26T07:31:51.363Z,7.80
2019-01-26T07:36:57.489Z,7.93
2019-01-26T07:42:05.009Z,8.15
2019-01-26T07:47:10.606Z,8.33
2019-01-26T07:52:15.622Z,8.48
2019-01-26T07:57:19.644Z,8.78
2019-01-26T08:02:25.081Z,9.12
2019-01-26T08:07:30.187Z,9.30
2019-01-26T08:12:36.753Z,9.47
2019-01-26T08:17:43.208Z,9.32
2019-01-26T08:22:52.429Z,9.12
2019-01-26T08:27:57.485Z,9.01
2019-01-26T08:33:02.301Z,9.03
2019-01-26T08:38:08.474Z,8.82
2019-01-26T08:43:14.542Z,8.72
2019-01-26T08:48:21.120Z,8.62
2019-01-26T08:53:26.612Z,8.50
2019-01-26T08:58:33.509Z,8.27
2019-01-26T09:03:57.423Z,8.40
2019-01-26T09:09:08.138Z,8.50
2019-01-26T09:14:17.811Z,8.55
2019-01-26T09:19:22.357Z,8.05
2019-01-26T09:24:26.673Z,7.67
2019-01-26T09:29:33.234Z,7.67
2019-01-26T09:34:38.589Z,7.66
2019-01-26T09:39:42.687Z,7.34
2019-01-26T09:44:47.248Z,7.24
2019-01-26T09:49:51.426Z,6.98
2019-01-26T09:54:57.006Z,6.79
2019-01-26T10:00:02.290Z,6.70
2019-01-26T10:05:08.161Z,6.64
2019-01-26T10:10:12.623Z,6.47
2019-01-26T10:15:18.539Z,6.23
2019-01-26T10:20:26.690Z,6.08
2019-01-26T10:25:33.781Z,6.10
2019-01-26T10:30:47.330Z,5.96
2019-01-26T10:36:16.887Z,5.91
2019-01-26T10:41:36.564Z,5.72
2019-01-26T10:46:41.543Z,5.85
2019-01-26T10:52:04.664Z,5.82
2019-01-26T10:57:09.675Z,5.71
2019-01-26T11:02:14.839Z,5.63
2019-01-26T11:07:19.340Z,5.72
2019-01-26T11:12:25.437Z,5.61
2019-01-26T11:17:32.214Z,5.60
2019-01-26T11:22:36.450Z,5.62
2019-01-26T11:27:40.649Z,5.49
2019-01-26T11:32:46.602Z,5.45
2019-01-26T11:37:51.278Z,5.16
2019-01-26T11:42:55.941Z,4.97
2019-01-26T11:48:02.463Z,4.81
2019-01-26T11:53:06.643Z,4.82
2019-01-26T11:58:10.752Z,4.77
2019-01-26T12:03:24.124Z,4.74
2019-01-26T12:08:28.459Z,4.93
2019-01-26T12:13:34.169Z,5.14
2019-01-26T12:18:39.124Z,5.19
2019-01-26T12:23:45.951Z,5.16
2019-01-26T12:28:50.353Z,5.26
2019-01-26T12:33:57.290Z,5.29
2019-01-26T12:39:02.502Z,5.39
2019-01-26T12:44:09.841Z,5.16
2019-01-26T12:49:16.186Z,5.13
2019-01-26T12:54:21.654Z,4.88
2019-01-26T12:59:29.828Z,4.74
2019-01-26T13:04:38.068Z,4.66
2019-01-26T13:09:42.222Z,4.78
2019-01-26T13:14:47.983Z,4.74
2019-01-26T13:19:53.183Z,4.66
2019-01-26T13:24:57.617Z,4.63
2019-01-26T13:30:02.563Z,4.61
2019-01-26T13:35:07.883Z,4.55
2019-01-26T13:40:16.082Z,4.39
2019-01-26T13:45:21.365Z,4.39
2019-01-26T13:50:27.588Z,4.24
2019-01-26T13:55:32.300Z,4.11
2019-01-26T14:00:36.938Z,4.08
2019-01-26T14:05:45.479Z,3.97
2019-01-26T14:10:50.034Z,4.01
2019-01-26T14:15:54.608Z,4.00
2019-01-26T14:20:59.202Z,3.80
2019-01-26T14:26:06.796Z,3.87
2019-01-26T14:31:13.219Z,3.69
2019-01-26T14:36:18.381Z,3.52
2019-01-26T14:41:37.565Z,3.60
2019-01-26T14:46:42.186Z,3.48
2019-01-26T14:51:47.323Z,3.47
2019-01-26T14:56:51.825Z,3.50
2019-01-26T15:01:55.913Z,3.41
2019-01-26T15:07:02.491Z,3.42
2019-01-26T15:12:07.082Z,3.39
2019-01-26T15:17:11.236Z,3.17
2019-01-26T15:22:15.747Z,3.09
2019-01-26T15:27:19.654Z,2.98
2019-01-26T15:32:23.836Z,2.93
2019-01-26T15:37:27.873Z,2.87
2019-01-26T15:42:34.369Z,2.84
2019-01-26T15:47:39.598Z,2.88
2019-01-26T15:52:47.391Z,2.77
2019-01-26T15:57:53.180Z,2.77
2019-01-26T16:02:57.897Z,2.91
2019-01-26T16:08:15.764Z,2.87
2019-01-26T16:13:20.947Z,2.85
2019-01-26T16:18:26.129Z,2.85
2019-01-26T16:23:34.221Z,2.88
2019-01-26T16:28:41.404Z,2.83
2019-01-26T16:34:07.300Z,2.78
2019-01-26T16:39:14.758Z,2.76
2019-01-26T16:44:19.623Z,2.69
2019-01-26T16:49:23.870Z,2.76
2019-01-26T16:54:29.471Z,2.78
2019-01-26T16:59:33.849Z,2.76
2019-01-26T17:04:37.945Z,2.72
2019-01-26T17:09:43.522Z,2.62
2019-01-26T17:14:47.545Z,2.67
2019-01-26T17:19:53.341Z,2.69
2019-01-26T17:24:58.182Z,2.64
2019-01-26T17:30:02.854Z,2.67
2019-01-26T17:35:10.862Z,2.64
2019-01-26T17:40:17.988Z,2.64
2019-01-26T17:45:22.513Z,2.55
2019-01-26T17:50:28.282Z,2.64
2019-01-26T17:55:34.089Z,2.65
2019-01-26T18:00:52.850Z,2.67
2019-01-26T18:05:59.395Z,2.52
2019-01-26T18:11:07.023Z,2.59
2019-01-26T18:16:13.496Z,2.52
2019-01-26T18:21:36.300Z,2.53
2019-01-26T18:26:44.375Z,2.58
2019-01-26T18:31:52.219Z,2.63
2019-01-26T18:36:56.749Z,2.62
2019-01-26T18:42:02.618Z,2.58
2019-01-26T18:47:09.452Z,2.66
2019-01-26T18:52:14.458Z,2.66
2019-01-26T18:57:20.452Z,2.72
2019-01-26T19:02:29.650Z,2.73
2019-01-26T19:07:34.910Z,2.82
2019-01-26T19:12:45.863Z,2.80
2019-01-26T19:17:52.364Z,2.81
2019-01-26T19:22:56.779Z,2.77
2019-01-26T19:28:01.856Z,2.78
2019-01-26T19:33:09.832Z,2.85
2019-01-26T19:38:18.626Z,2.83
2019-01-26T19:43:26.142Z,2.75
2019-01-26T19:48:31.053Z,2.71
2019-01-26T19:53:36.172Z,2.77
2019-01-26T19:58:41.539Z,2.84
2019-01-26T20:03:45.653Z,2.82
2019-01-26T20:08:50.810Z,2.88
2019-01-26T20:13:57.667Z,2.93
2019-01-26T20:19:03.819Z,2.85
2019-01-26T20:24:12.162Z,2.82
2019-01-26T20:29:17.464Z,2.90
2019-01-26T20:34:23.921Z,2.91
2019-01-26T20:39:31.442Z,3.04
2019-01-26T20:44:38.599Z,2.98
2019-01-26T20:49:45.456Z,2.98
2019-01-26T20:54:52.103Z,3.02
2019-01-26T20:59:57.306Z,3.14
2019-01-26T21:05:02.294Z,3.12
2019-01-26T21:10:12.623Z,3.08
2019-01-26T21:15:18.927Z,3.16
2019-01-26T21:20:24.883Z,3.22
2019-01-26T21:25:32.283Z,3.04
2019-01-26T21:30:42.112Z,3.10
2019-01-26T21:35:51.814Z,3.22
2019-01-26T21:40:57.138Z,3.27
2019-01-26T21:46:01.200Z,3.46
2019-01-26T21:51:07.880Z,3.52
2019-01-26T21:56:14.259Z,3.57
2019-01-26T22:01:19.099Z,3.56
2019-01-26T22:06:25.801Z,3.57
2019-01-26T22:11:33.613Z,3.63
2019-01-26T22:16:41.178Z,3.59
2019-01-26T22:21:46.217Z,3.61
2019-01-26T22:26:50.582Z,3.51
2019-01-26T22:32:06.066Z,3.58
2019-01-26T22:37:21.463Z,3.56
2019-01-26T22:42:29.010Z,3.58
2019-01-26T22:47:35.999Z,3.50
2019-01-26T22:52:41.142Z,3.51
2019-01-26T22:57:47.572Z,3.47
2019-01-26T23:02:52.723Z,3.29
2019-01-26T23:08:03.446Z,3.16
2019-01-26T23:13:58.274Z,3.01
2019-01-26T23:19:26.929Z,3.06
2019-01-26T23:25:06.770Z,2.94
2019-01-26T23:30:48.489Z,3.02
2019-01-26T23:35:54.926Z,3.14
2019-01-26T23:40:59.381Z,3.27
2019-01-26T23:46:05.432Z,3.33
2019-01-26T23:51:11.156Z,3.42
2019-01-26T23:56:16.819Z,3.48
